sensor_id;sensor_type;location;lat;lon;timestamp;P1;durP1;ratioP1;P2;durP2;ratioP2
16669;SDS011;8448;52.034;5.158;2022-10-16T00:01:26;8.03;;;3.00;;
16669;SDS011;8448;52.034;5.158;2022-10-16T00:03:54;4.57;;;2.77;;
16669;SDS011;8448;52.034;5.158;2022-10-16T00:06:22;6.20;;;3.07;;
16669;SDS011;8448;52.034;5.158;2022-10-16T00:08:50;6.67;;;3.03;;
16669;SDS011;8448;52.034;5.158;2022-10-16T00:11:18;6.80;;;3.00;;
16669;SDS011;8448;52.034;5.158;2022-10-16T00:13:47;6.63;;;3.03;;
16669;SDS011;8448;52.034;5.158;2022-10-16T00:16:17;4.93;;;3.33;;
16669;SDS011;8448;52.034;5.158;2022-10-16T00:18:45;6.23;;;3.00;;
16669;SDS011;8448;52.034;5.158;2022-10-16T00:21:13;5.87;;;3.10;;
16669;SDS011;8448;52.034;5.158;2022-10-16T00:23:41;9.23;;;3.37;;
16669;SDS011;8448;52.034;5.158;2022-10-16T00:26:10;8.30;;;3.47;;
16669;SDS011;8448;52.034;5.158;2022-10-16T00:28:38;6.73;;;3.37;;
16669;SDS011;8448;52.034;5.158;2022-10-16T00:31:06;6.20;;;3.03;;
16669;SDS011;8448;52.034;5.158;2022-10-16T00:33:36;6.30;;;3.43;;
16669;SDS011;8448;52.034;5.158;2022-10-16T00:36:04;9.33;;;3.50;;
16669;SDS011;8448;52.034;5.158;2022-10-16T00:38:33;5.97;;;3.23;;
16669;SDS011;8448;52.034;5.158;2022-10-16T00:41:00;5.23;;;3.27;;
16669;SDS011;8448;52.034;5.158;2022-10-16T00:43:35;8.47;;;3.50;;
16669;SDS011;8448;52.034;5.158;2022-10-16T00:46:07;4.93;;;3.47;;
16669;SDS011;8448;52.034;5.158;2022-10-16T00:48:46;6.47;;;3.23;;
16669;SDS011;8448;52.034;5.158;2022-10-16T00:51:17;5.30;;;3.33;;
16669;SDS011;8448;52.034;5.158;2022-10-16T00:53:48;7.17;;;3.37;;
16669;SDS011;8448;52.034;5.158;2022-10-16T00:56:15;7.07;;;3.20;;
16669;SDS011;8448;52.034;5.158;2022-10-16T00:58:43;4.93;;;2.90;;
16669;SDS011;8448;52.034;5.158;2022-10-16T01:01:10;7.40;;;2.90;;
16669;SDS011;8448;52.034;5.158;2022-10-16T01:03:38;7.07;;;3.10;;
16669;SDS011;8448;52.034;5.158;2022-10-16T01:06:13;5.70;;;3.03;;
16669;SDS011;8448;52.034;5.158;2022-10-16T01:08:56;5.63;;;3.10;;
16669;SDS011;8448;52.034;5.158;2022-10-16T01:11:30;6.80;;;3.37;;
16669;SDS011;8448;52.034;5.158;2022-10-16T01:14:02;4.23;;;2.90;;
16669;SDS011;8448;52.034;5.158;2022-10-16T01:16:37;7.57;;;3.00;;
16669;SDS011;8448;52.034;5.158;2022-10-16T01:19:09;4.70;;;2.90;;
16669;SDS011;8448;52.034;5.158;2022-10-16T01:21:40;5.40;;;3.23;;
16669;SDS011;8448;52.034;5.158;2022-10-16T01:24:12;7.90;;;3.37;;
16669;SDS011;8448;52.034;5.158;2022-10-16T01:26:49;4.17;;;3.10;;
16669;SDS011;8448;52.034;5.158;2022-10-16T01:29:29;4.90;;;3.17;;
16669;SDS011;8448;52.034;5.158;2022-10-16T01:32:01;7.10;;;3.23;;
16669;SDS011;8448;52.034;5.158;2022-10-16T01:34:32;6.33;;;3.47;;
16669;SDS011;8448;52.034;5.158;2022-10-16T01:37:02;4.27;;;2.77;;
16669;SDS011;8448;52.034;5.158;2022-10-16T01:39:32;7.13;;;3.27;;
16669;SDS011;8448;52.034;5.158;2022-10-16T01:42:03;4.40;;;3.10;;
16669;SDS011;8448;52.034;5.158;2022-10-16T01:44:33;6.43;;;3.30;;
16669;SDS011;8448;52.034;5.158;2022-10-16T01:47:01;4.40;;;2.80;;
16669;SDS011;8448;52.034;5.158;2022-10-16T01:49:30;6.17;;;3.00;;
16669;SDS011;8448;52.034;5.158;2022-10-16T01:52:00;5.37;;;3.10;;
16669;SDS011;8448;52.034;5.158;2022-10-16T01:54:31;5.40;;;3.00;;
16669;SDS011;8448;52.034;5.158;2022-10-16T01:57:00;5.47;;;3.00;;
16669;SDS011;8448;52.034;5.158;2022-10-16T01:59:31;6.07;;;3.20;;
16669;SDS011;8448;52.034;5.158;2022-10-16T02:01:59;5.30;;;3.40;;
16669;SDS011;8448;52.034;5.158;2022-10-16T02:04:31;4.47;;;3.17;;
16669;SDS011;8448;52.034;5.158;2022-10-16T02:06:59;4.87;;;3.50;;
16669;SDS011;8448;52.034;5.158;2022-10-16T02:09:27;7.73;;;3.30;;
16669;SDS011;8448;52.034;5.158;2022-10-16T02:11:55;5.00;;;3.43;;
16669;SDS011;8448;52.034;5.158;2022-10-16T02:14:25;6.13;;;3.50;;
16669;SDS011;8448;52.034;5.158;2022-10-16T02:16:53;6.47;;;3.93;;
16669;SDS011;8448;52.034;5.158;2022-10-16T02:19:20;5.27;;;3.60;;
16669;SDS011;8448;52.034;5.158;2022-10-16T02:21:49;5.87;;;3.43;;
16669;SDS011;8448;52.034;5.158;2022-10-16T02:24:19;5.63;;;3.80;;
16669;SDS011;8448;52.034;5.158;2022-10-16T02:26:57;5.10;;;3.57;;
16669;SDS011;8448;52.034;5.158;2022-10-16T02:29:29;5.40;;;3.10;;
16669;SDS011;8448;52.034;5.158;2022-10-16T02:31:58;5.40;;;3.30;;
16669;SDS011;8448;52.034;5.158;2022-10-16T02:34:28;5.90;;;3.20;;
16669;SDS011;8448;52.034;5.158;2022-10-16T02:36:57;4.00;;;2.80;;
16669;SDS011;8448;52.034;5.158;2022-10-16T02:39:26;4.10;;;3.17;;
16669;SDS011;8448;52.034;5.158;2022-10-16T02:41:54;4.37;;;2.87;;
16669;SDS011;8448;52.034;5.158;2022-10-16T02:44:21;4.83;;;3.17;;
16669;SDS011;8448;52.034;5.158;2022-10-16T02:46:50;7.17;;;2.90;;
16669;SDS011;8448;52.034;5.158;2022-10-16T02:49:17;4.17;;;2.50;;
16669;SDS011;8448;52.034;5.158;2022-10-16T02:51:45;3.50;;;2.70;;
16669;SDS011;8448;52.034;5.158;2022-10-16T02:54:12;4.73;;;3.07;;
16669;SDS011;8448;52.034;5.158;2022-10-16T02:56:39;4.27;;;2.70;;
16669;SDS011;8448;52.034;5.158;2022-10-16T02:59:06;5.37;;;2.80;;
16669;SDS011;8448;52.034;5.158;2022-10-16T03:01:34;4.33;;;2.73;;
16669;SDS011;8448;52.034;5.158;2022-10-16T03:04:03;4.17;;;2.67;;
16669;SDS011;8448;52.034;5.158;2022-10-16T03:06:30;3.83;;;2.60;;
16669;SDS011;8448;52.034;5.158;2022-10-16T03:08:57;4.53;;;2.43;;
16669;SDS011;8448;52.034;5.158;2022-10-16T03:11:25;5.27;;;2.63;;
16669;SDS011;8448;52.034;5.158;2022-10-16T03:13:53;2.83;;;2.40;;
16669;SDS011;8448;52.034;5.158;2022-10-16T03:16:20;4.20;;;2.90;;
16669;SDS011;8448;52.034;5.158;2022-10-16T03:18:47;4.93;;;2.37;;
16669;SDS011;8448;52.034;5.158;2022-10-16T03:21:16;3.27;;;2.23;;
16669;SDS011;8448;52.034;5.158;2022-10-16T03:23:44;5.20;;;2.33;;
16669;SDS011;8448;52.034;5.158;2022-10-16T03:26:11;3.33;;;2.50;;
16669;SDS011;8448;52.034;5.158;2022-10-16T03:28:39;3.53;;;2.50;;
16669;SDS011;8448;52.034;5.158;2022-10-16T03:31:06;3.47;;;2.33;;
16669;SDS011;8448;52.034;5.158;2022-10-16T03:33:33;7.23;;;2.40;;
16669;SDS011;8448;52.034;5.158;2022-10-16T03:36:00;3.33;;;2.37;;
16669;SDS011;8448;52.034;5.158;2022-10-16T03:38:29;3.27;;;2.33;;
16669;SDS011;8448;52.034;5.158;2022-10-16T03:40:57;3.67;;;2.17;;
16669;SDS011;8448;52.034;5.158;2022-10-16T03:43:24;5.27;;;2.40;;
16669;SDS011;8448;52.034;5.158;2022-10-16T03:45:51;4.17;;;2.47;;
16669;SDS011;8448;52.034;5.158;2022-10-16T03:48:19;3.27;;;2.20;;
16669;SDS011;8448;52.034;5.158;2022-10-16T03:50:46;4.87;;;2.30;;
16669;SDS011;8448;52.034;5.158;2022-10-16T03:53:13;3.80;;;2.37;;
16669;SDS011;8448;52.034;5.158;2022-10-16T03:55:42;4.20;;;2.10;;
16669;SDS011;8448;52.034;5.158;2022-10-16T03:58:10;5.43;;;2.30;;
16669;SDS011;8448;52.034;5.158;2022-10-16T04:00:39;5.20;;;2.40;;
16669;SDS011;8448;52.034;5.158;2022-10-16T04:03:07;3.67;;;2.20;;
16669;SDS011;8448;52.034;5.158;2022-10-16T04:05:34;4.23;;;2.50;;
16669;SDS011;8448;52.034;5.158;2022-10-16T04:08:01;3.97;;;2.20;;
16669;SDS011;8448;52.034;5.158;2022-10-16T04:10:29;2.60;;;2.10;;
16669;SDS011;8448;52.034;5.158;2022-10-16T04:12:58;2.60;;;2.10;;
16669;SDS011;8448;52.034;5.158;2022-10-16T04:15:25;4.57;;;2.13;;
16669;SDS011;8448;52.034;5.158;2022-10-16T04:17:52;6.03;;;2.37;;
16669;SDS011;8448;52.034;5.158;2022-10-16T04:20:20;3.27;;;2.30;;
16669;SDS011;8448;52.034;5.158;2022-10-16T04:22:47;2.67;;;2.20;;
16669;SDS011;8448;52.034;5.158;2022-10-16T04:25:15;3.10;;;2.10;;
16669;SDS011;8448;52.034;5.158;2022-10-16T04:27:42;3.80;;;2.30;;
16669;SDS011;8448;52.034;5.158;2022-10-16T04:30:11;3.73;;;2.20;;
16669;SDS011;8448;52.034;5.158;2022-10-16T04:32:38;4.97;;;2.47;;
16669;SDS011;8448;52.034;5.158;2022-10-16T04:35:06;3.50;;;2.13;;
16669;SDS011;8448;52.034;5.158;2022-10-16T04:37:34;2.37;;;2.00;;
16669;SDS011;8448;52.034;5.158;2022-10-16T04:40:01;3.53;;;2.50;;
16669;SDS011;8448;52.034;5.158;2022-10-16T04:42:29;3.93;;;2.17;;
16669;SDS011;8448;52.034;5.158;2022-10-16T04:44:57;3.50;;;2.30;;
16669;SDS011;8448;52.034;5.158;2022-10-16T04:47:25;3.10;;;2.50;;
16669;SDS011;8448;52.034;5.158;2022-10-16T04:49:53;6.20;;;2.53;;
16669;SDS011;8448;52.034;5.158;2022-10-16T04:52:20;3.13;;;2.30;;
16669;SDS011;8448;52.034;5.158;2022-10-16T04:54:49;3.03;;;2.23;;
16669;SDS011;8448;52.034;5.158;2022-10-16T04:57:17;4.50;;;2.50;;
16669;SDS011;8448;52.034;5.158;2022-10-16T04:59:44;2.90;;;2.10;;
16669;SDS011;8448;52.034;5.158;2022-10-16T05:02:11;4.23;;;2.10;;
16669;SDS011;8448;52.034;5.158;2022-10-16T05:04:40;3.40;;;2.20;;
16669;SDS011;8448;52.034;5.158;2022-10-16T05:07:07;4.17;;;2.37;;
16669;SDS011;8448;52.034;5.158;2022-10-16T05:09:35;5.13;;;2.13;;
16669;SDS011;8448;52.034;5.158;2022-10-16T05:12:02;2.97;;;2.20;;
16669;SDS011;8448;52.034;5.158;2022-10-16T05:14:30;5.80;;;2.80;;
16669;SDS011;8448;52.034;5.158;2022-10-16T05:16:57;3.80;;;2.77;;
16669;SDS011;8448;52.034;5.158;2022-10-16T05:19:25;3.23;;;2.60;;
16669;SDS011;8448;52.034;5.158;2022-10-16T05:21:54;4.73;;;2.53;;
16669;SDS011;8448;52.034;5.158;2022-10-16T05:24:21;4.97;;;2.73;;
16669;SDS011;8448;52.034;5.158;2022-10-16T05:26:49;4.40;;;2.43;;
16669;SDS011;8448;52.034;5.158;2022-10-16T05:29:16;3.93;;;2.77;;
16669;SDS011;8448;52.034;5.158;2022-10-16T05:31:44;3.57;;;2.67;;
16669;SDS011;8448;52.034;5.158;2022-10-16T05:34:11;3.53;;;2.80;;
16669;SDS011;8448;52.034;5.158;2022-10-16T05:36:38;5.23;;;3.20;;
16669;SDS011;8448;52.034;5.158;2022-10-16T05:39:07;4.60;;;2.70;;
16669;SDS011;8448;52.034;5.158;2022-10-16T05:41:34;4.07;;;2.73;;
16669;SDS011;8448;52.034;5.158;2022-10-16T05:44:03;4.07;;;2.97;;
16669;SDS011;8448;52.034;5.158;2022-10-16T05:46:31;4.13;;;2.90;;
16669;SDS011;8448;52.034;5.158;2022-10-16T05:48:59;4.87;;;2.70;;
16669;SDS011;8448;52.034;5.158;2022-10-16T05:51:26;5.10;;;2.97;;
16669;SDS011;8448;52.034;5.158;2022-10-16T05:53:54;5.03;;;3.30;;
16669;SDS011;8448;52.034;5.158;2022-10-16T05:56:22;3.33;;;2.60;;
16669;SDS011;8448;52.034;5.158;2022-10-16T05:58:49;4.90;;;2.80;;
16669;SDS011;8448;52.034;5.158;2022-10-16T06:01:17;5.63;;;2.87;;
16669;SDS011;8448;52.034;5.158;2022-10-16T06:03:49;5.03;;;3.20;;
16669;SDS011;8448;52.034;5.158;2022-10-16T06:06:17;5.57;;;2.90;;
16669;SDS011;8448;52.034;5.158;2022-10-16T06:08:46;4.40;;;2.90;;
16669;SDS011;8448;52.034;5.158;2022-10-16T06:11:14;3.90;;;3.03;;
16669;SDS011;8448;52.034;5.158;2022-10-16T06:13:44;7.73;;;2.83;;
16669;SDS011;8448;52.034;5.158;2022-10-16T06:16:12;5.27;;;2.90;;
16669;SDS011;8448;52.034;5.158;2022-10-16T06:18:40;4.30;;;3.20;;
16669;SDS011;8448;52.034;5.158;2022-10-16T06:21:07;3.67;;;2.97;;
16669;SDS011;8448;52.034;5.158;2022-10-16T06:23:35;6.90;;;3.17;;
16669;SDS011;8448;52.034;5.158;2022-10-16T06:26:06;4.20;;;2.90;;
16669;SDS011;8448;52.034;5.158;2022-10-16T06:28:34;5.03;;;3.00;;
16669;SDS011;8448;52.034;5.158;2022-10-16T06:31:03;5.47;;;3.30;;
16669;SDS011;8448;52.034;5.158;2022-10-16T06:33:32;4.87;;;3.00;;
16669;SDS011;8448;52.034;5.158;2022-10-16T06:36:02;6.07;;;3.53;;
16669;SDS011;8448;52.034;5.158;2022-10-16T06:38:30;7.53;;;3.20;;
16669;SDS011;8448;52.034;5.158;2022-10-16T06:40:57;5.27;;;3.10;;
16669;SDS011;8448;52.034;5.158;2022-10-16T06:43:25;4.50;;;3.13;;
16669;SDS011;8448;52.034;5.158;2022-10-16T06:45:52;4.07;;;2.93;;
16669;SDS011;8448;52.034;5.158;2022-10-16T06:48:22;4.90;;;3.30;;
16669;SDS011;8448;52.034;5.158;2022-10-16T06:50:56;4.90;;;3.13;;
16669;SDS011;8448;52.034;5.158;2022-10-16T06:53:25;6.93;;;3.10;;
16669;SDS011;8448;52.034;5.158;2022-10-16T06:55:53;5.47;;;3.30;;
16669;SDS011;8448;52.034;5.158;2022-10-16T06:58:21;7.37;;;3.23;;
16669;SDS011;8448;52.034;5.158;2022-10-16T07:00:48;5.20;;;3.00;;
16669;SDS011;8448;52.034;5.158;2022-10-16T07:03:22;4.37;;;3.20;;
16669;SDS011;8448;52.034;5.158;2022-10-16T07:05:49;4.73;;;3.13;;
16669;SDS011;8448;52.034;5.158;2022-10-16T07:08:16;4.57;;;2.80;;
16669;SDS011;8448;52.034;5.158;2022-10-16T07:10:44;5.57;;;2.80;;
16669;SDS011;8448;52.034;5.158;2022-10-16T07:13:11;4.63;;;2.27;;
16669;SDS011;8448;52.034;5.158;2022-10-16T07:15:39;3.27;;;2.20;;
16669;SDS011;8448;52.034;5.158;2022-10-16T07:18:06;4.50;;;2.37;;
16669;SDS011;8448;52.034;5.158;2022-10-16T07:20:35;3.77;;;2.20;;
16669;SDS011;8448;52.034;5.158;2022-10-16T07:23:03;5.87;;;2.47;;
16669;SDS011;8448;52.034;5.158;2022-10-16T07:25:30;4.27;;;2.30;;
16669;SDS011;8448;52.034;5.158;2022-10-16T07:27:58;5.13;;;2.73;;
16669;SDS011;8448;52.034;5.158;2022-10-16T07:30:25;6.50;;;2.80;;
16669;SDS011;8448;52.034;5.158;2022-10-16T07:32:52;7.23;;;3.20;;
16669;SDS011;8448;52.034;5.158;2022-10-16T07:35:19;6.00;;;2.90;;
16669;SDS011;8448;52.034;5.158;2022-10-16T07:37:48;6.77;;;3.27;;
16669;SDS011;8448;52.034;5.158;2022-10-16T07:40:15;5.30;;;3.17;;
16669;SDS011;8448;52.034;5.158;2022-10-16T07:42:43;7.10;;;3.57;;
16669;SDS011;8448;52.034;5.158;2022-10-16T07:45:10;6.83;;;3.30;;
16669;SDS011;8448;52.034;5.158;2022-10-16T07:47:38;6.00;;;3.60;;
16669;SDS011;8448;52.034;5.158;2022-10-16T07:50:05;3.80;;;3.10;;
16669;SDS011;8448;52.034;5.158;2022-10-16T07:52:33;6.63;;;3.00;;
16669;SDS011;8448;52.034;5.158;2022-10-16T07:55:01;7.97;;;3.20;;
16669;SDS011;8448;52.034;5.158;2022-10-16T07:57:29;7.30;;;3.23;;
16669;SDS011;8448;52.034;5.158;2022-10-16T07:59:57;5.63;;;3.13;;
16669;SDS011;8448;52.034;5.158;2022-10-16T08:02:24;4.13;;;3.00;;
16669;SDS011;8448;52.034;5.158;2022-10-16T08:04:51;6.03;;;3.13;;
16669;SDS011;8448;52.034;5.158;2022-10-16T08:07:19;4.93;;;3.07;;
16669;SDS011;8448;52.034;5.158;2022-10-16T08:09:48;6.87;;;2.77;;
16669;SDS011;8448;52.034;5.158;2022-10-16T08:12:18;4.30;;;2.80;;
16669;SDS011;8448;52.034;5.158;2022-10-16T08:14:45;2.63;;;2.33;;
16669;SDS011;8448;52.034;5.158;2022-10-16T08:17:13;7.87;;;3.00;;
16669;SDS011;8448;52.034;5.158;2022-10-16T08:19:43;6.97;;;2.77;;
16669;SDS011;8448;52.034;5.158;2022-10-16T08:22:11;5.23;;;2.80;;
16669;SDS011;8448;52.034;5.158;2022-10-16T08:24:39;6.10;;;2.90;;
16669;SDS011;8448;52.034;5.158;2022-10-16T08:27:07;7.13;;;2.60;;
16669;SDS011;8448;52.034;5.158;2022-10-16T08:29:36;5.43;;;2.53;;
16669;SDS011;8448;52.034;5.158;2022-10-16T08:32:04;7.07;;;2.90;;
16669;SDS011;8448;52.034;5.158;2022-10-16T08:34:31;4.97;;;2.47;;
16669;SDS011;8448;52.034;5.158;2022-10-16T08:36:58;4.43;;;2.57;;
16669;SDS011;8448;52.034;5.158;2022-10-16T08:39:26;4.70;;;2.30;;
16669;SDS011;8448;52.034;5.158;2022-10-16T08:42:03;5.77;;;2.63;;
16669;SDS011;8448;52.034;5.158;2022-10-16T08:47:38;6.17;;;2.07;;
16669;SDS011;8448;52.034;5.158;2022-10-16T08:50:12;3.30;;;2.17;;
16669;SDS011;8448;52.034;5.158;2022-10-16T08:52:41;4.50;;;2.17;;
16669;SDS011;8448;52.034;5.158;2022-10-16T08:55:15;5.28;;;2.30;;
16669;SDS011;8448;52.034;5.158;2022-10-16T08:57:49;5.63;;;2.17;;
16669;SDS011;8448;52.034;5.158;2022-10-16T09:00:18;4.15;;;2.10;;
16669;SDS011;8448;52.034;5.158;2022-10-16T09:02:47;3.35;;;2.10;;
16669;SDS011;8448;52.034;5.158;2022-10-16T09:05:19;5.20;;;1.95;;
16669;SDS011;8448;52.034;5.158;2022-10-16T09:07:54;3.85;;;1.85;;
16669;SDS011;8448;52.034;5.158;2022-10-16T09:10:28;9.50;;;2.20;;
16669;SDS011;8448;52.034;5.158;2022-10-16T09:13:02;6.15;;;2.20;;
16669;SDS011;8448;52.034;5.158;2022-10-16T09:15:37;3.65;;;2.13;;
16669;SDS011;8448;52.034;5.158;2022-10-16T09:18:09;4.68;;;2.20;;
16669;SDS011;8448;52.034;5.158;2022-10-16T09:20:44;4.13;;;1.77;;
16669;SDS011;8448;52.034;5.158;2022-10-16T09:23:16;4.55;;;1.85;;
16669;SDS011;8448;52.034;5.158;2022-10-16T09:25:48;9.10;;;2.55;;
16669;SDS011;8448;52.034;5.158;2022-10-16T09:28:17;6.93;;;1.98;;
16669;SDS011;8448;52.034;5.158;2022-10-16T09:30:46;6.32;;;2.42;;
16669;SDS011;8448;52.034;5.158;2022-10-16T09:33:15;5.60;;;2.08;;
16669;SDS011;8448;52.034;5.158;2022-10-16T09:35:44;7.28;;;2.20;;
16669;SDS011;8448;52.034;5.158;2022-10-16T09:38:22;5.57;;;1.90;;
16669;SDS011;8448;52.034;5.158;2022-10-16T09:40:53;5.28;;;2.17;;
16669;SDS011;8448;52.034;5.158;2022-10-16T09:43:22;7.45;;;2.30;;
16669;SDS011;8448;52.034;5.158;2022-10-16T09:45:54;8.55;;;2.55;;
16669;SDS011;8448;52.034;5.158;2022-10-16T09:48:23;5.80;;;2.17;;
16669;SDS011;8448;52.034;5.158;2022-10-16T09:50:56;6.75;;;2.15;;
16669;SDS011;8448;52.034;5.158;2022-10-16T09:53:25;6.93;;;2.10;;
16669;SDS011;8448;52.034;5.158;2022-10-16T09:56:04;8.13;;;2.05;;
16669;SDS011;8448;52.034;5.158;2022-10-16T09:58:32;5.75;;;1.95;;
16669;SDS011;8448;52.034;5.158;2022-10-16T10:01:01;10.18;;;2.38;;
16669;SDS011;8448;52.034;5.158;2022-10-16T10:03:32;7.45;;;2.20;;
16669;SDS011;8448;52.034;5.158;2022-10-16T10:06:03;8.25;;;2.70;;
16669;SDS011;8448;52.034;5.158;2022-10-16T10:08:52;8.98;;;2.25;;
16669;SDS011;8448;52.034;5.158;2022-10-16T10:14:04;4.65;;;1.83;;
16669;SDS011;8448;52.034;5.158;2022-10-16T10:16:33;9.82;;;2.25;;
16669;SDS011;8448;52.034;5.158;2022-10-16T10:19:00;7.45;;;1.90;;
16669;SDS011;8448;52.034;5.158;2022-10-16T10:21:27;10.95;;;2.20;;
16669;SDS011;8448;52.034;5.158;2022-10-16T10:23:55;9.50;;;2.15;;
16669;SDS011;8448;52.034;5.158;2022-10-16T10:26:23;8.65;;;2.60;;
16669;SDS011;8448;52.034;5.158;2022-10-16T10:28:54;8.52;;;2.13;;
16669;SDS011;8448;52.034;5.158;2022-10-16T10:31:26;6.13;;;2.10;;
16669;SDS011;8448;52.034;5.158;2022-10-16T10:33:57;9.25;;;2.30;;
16669;SDS011;8448;52.034;5.158;2022-10-16T10:36:29;7.63;;;2.17;;
16669;SDS011;8448;52.034;5.158;2022-10-16T10:38:59;9.65;;;2.22;;
16669;SDS011;8448;52.034;5.158;2022-10-16T10:41:35;5.95;;;1.70;;
16669;SDS011;8448;52.034;5.158;2022-10-16T10:44:16;5.03;;;1.92;;
16669;SDS011;8448;52.034;5.158;2022-10-16T10:46:50;8.35;;;2.03;;
16669;SDS011;8448;52.034;5.158;2022-10-16T10:49:26;7.47;;;1.92;;
16669;SDS011;8448;52.034;5.158;2022-10-16T10:52:08;6.68;;;2.05;;
16669;SDS011;8448;52.034;5.158;2022-10-16T10:54:45;6.18;;;1.83;;
16669;SDS011;8448;52.034;5.158;2022-10-16T10:57:19;8.52;;;1.92;;
16669;SDS011;8448;52.034;5.158;2022-10-16T10:59:54;8.55;;;1.98;;
16669;SDS011;8448;52.034;5.158;2022-10-16T11:02:31;8.43;;;1.98;;
16669;SDS011;8448;52.034;5.158;2022-10-16T11:08:06;8.30;;;2.25;;
16669;SDS011;8448;52.034;5.158;2022-10-16T11:10:40;5.95;;;1.70;;
16669;SDS011;8448;52.034;5.158;2022-10-16T11:13:15;5.60;;;2.03;;
16669;SDS011;8448;52.034;5.158;2022-10-16T11:15:53;6.32;;;2.08;;
16669;SDS011;8448;52.034;5.158;2022-10-16T11:18:24;5.35;;;1.70;;
16669;SDS011;8448;52.034;5.158;2022-10-16T11:20:57;6.35;;;1.80;;
16669;SDS011;8448;52.034;5.158;2022-10-16T11:23:29;6.00;;;1.80;;
16669;SDS011;8448;52.034;5.158;2022-10-16T11:26:00;7.35;;;1.77;;
16669;SDS011;8448;52.034;5.158;2022-10-16T11:28:32;4.97;;;1.80;;
16669;SDS011;8448;52.034;5.158;2022-10-16T11:31:03;7.03;;;2.10;;
16669;SDS011;8448;52.034;5.158;2022-10-16T11:33:36;5.32;;;1.60;;
16669;SDS011;8448;52.034;5.158;2022-10-16T11:36:11;6.53;;;1.77;;
16669;SDS011;8448;52.034;5.158;2022-10-16T11:38:42;4.95;;;1.40;;
16669;SDS011;8448;52.034;5.158;2022-10-16T11:41:16;4.53;;;1.48;;
16669;SDS011;8448;52.034;5.158;2022-10-16T11:43:49;8.45;;;1.65;;
16669;SDS011;8448;52.034;5.158;2022-10-16T11:46:24;7.72;;;1.60;;
16669;SDS011;8448;52.034;5.158;2022-10-16T11:48:52;6.43;;;1.88;;
16669;SDS011;8448;52.034;5.158;2022-10-16T11:51:29;5.18;;;1.40;;
16669;SDS011;8448;52.034;5.158;2022-10-16T11:54:04;6.85;;;1.70;;
16669;SDS011;8448;52.034;5.158;2022-10-16T11:56:41;7.93;;;1.80;;
16669;SDS011;8448;52.034;5.158;2022-10-16T11:59:13;6.72;;;1.63;;
16669;SDS011;8448;52.034;5.158;2022-10-16T12:01:51;4.45;;;1.35;;
16669;SDS011;8448;52.034;5.158;2022-10-16T12:04:21;6.57;;;1.75;;
16669;SDS011;8448;52.034;5.158;2022-10-16T12:06:55;5.07;;;1.58;;
16669;SDS011;8448;52.034;5.158;2022-10-16T12:09:26;4.35;;;1.50;;
16669;SDS011;8448;52.034;5.158;2022-10-16T12:11:55;8.35;;;1.73;;
16669;SDS011;8448;52.034;5.158;2022-10-16T12:17:22;6.47;;;1.67;;
16669;SDS011;8448;52.034;5.158;2022-10-16T12:20:00;3.72;;;1.40;;
16669;SDS011;8448;52.034;5.158;2022-10-16T12:22:49;4.95;;;1.50;;
16669;SDS011;8448;52.034;5.158;2022-10-16T12:25:23;6.78;;;1.55;;
16669;SDS011;8448;52.034;5.158;2022-10-16T12:28:00;5.13;;;1.67;;
16669;SDS011;8448;52.034;5.158;2022-10-16T12:30:29;5.45;;;1.30;;
16669;SDS011;8448;52.034;5.158;2022-10-16T12:32:58;4.45;;;1.45;;
16669;SDS011;8448;52.034;5.158;2022-10-16T12:35:28;7.45;;;2.33;;
16669;SDS011;8448;52.034;5.158;2022-10-16T12:38:06;5.43;;;1.65;;
16669;SDS011;8448;52.034;5.158;2022-10-16T12:40:35;5.18;;;1.70;;
16669;SDS011;8448;52.034;5.158;2022-10-16T12:43:11;5.05;;;1.67;;
16669;SDS011;8448;52.034;5.158;2022-10-16T12:45:39;5.85;;;1.83;;
16669;SDS011;8448;52.034;5.158;2022-10-16T12:48:18;6.40;;;1.70;;
16669;SDS011;8448;52.034;5.158;2022-10-16T12:50:46;6.93;;;1.75;;
16669;SDS011;8448;52.034;5.158;2022-10-16T12:53:19;5.22;;;1.90;;
16669;SDS011;8448;52.034;5.158;2022-10-16T12:55:51;5.82;;;1.70;;
16669;SDS011;8448;52.034;5.158;2022-10-16T12:58:38;5.18;;;1.50;;
16669;SDS011;8448;52.034;5.158;2022-10-16T13:01:20;6.85;;;1.60;;
16669;SDS011;8448;52.034;5.158;2022-10-16T13:07:05;8.50;;;1.63;;
16669;SDS011;8448;52.034;5.158;2022-10-16T13:09:46;7.13;;;1.60;;
16669;SDS011;8448;52.034;5.158;2022-10-16T13:12:23;5.55;;;1.45;;
16669;SDS011;8448;52.034;5.158;2022-10-16T13:15:16;5.25;;;1.65;;
16669;SDS011;8448;52.034;5.158;2022-10-16T13:17:57;7.55;;;1.80;;
16669;SDS011;8448;52.034;5.158;2022-10-16T13:20:30;6.35;;;1.65;;
16669;SDS011;8448;52.034;5.158;2022-10-16T13:23:02;4.05;;;1.40;;
16669;SDS011;8448;52.034;5.158;2022-10-16T13:25:40;7.30;;;1.80;;
16669;SDS011;8448;52.034;5.158;2022-10-16T13:28:13;7.25;;;2.05;;
16669;SDS011;8448;52.034;5.158;2022-10-16T13:30:41;6.85;;;1.73;;
16669;SDS011;8448;52.034;5.158;2022-10-16T13:33:13;7.68;;;1.98;;
16669;SDS011;8448;52.034;5.158;2022-10-16T13:35:47;5.10;;;1.80;;
16669;SDS011;8448;52.034;5.158;2022-10-16T13:38:17;6.70;;;1.88;;
16669;SDS011;8448;52.034;5.158;2022-10-16T13:40:50;4.95;;;1.92;;
16669;SDS011;8448;52.034;5.158;2022-10-16T13:43:19;6.38;;;1.63;;
16669;SDS011;8448;52.034;5.158;2022-10-16T13:45:53;7.30;;;1.83;;
16669;SDS011;8448;52.034;5.158;2022-10-16T13:48:22;8.40;;;1.90;;
16669;SDS011;8448;52.034;5.158;2022-10-16T13:50:59;7.18;;;2.15;;
16669;SDS011;8448;52.034;5.158;2022-10-16T13:53:31;5.13;;;1.63;;
16669;SDS011;8448;52.034;5.158;2022-10-16T13:56:01;8.73;;;2.08;;
16669;SDS011;8448;52.034;5.158;2022-10-16T13:58:29;6.60;;;1.60;;
16669;SDS011;8448;52.034;5.158;2022-10-16T14:00:57;8.65;;;1.80;;
16669;SDS011;8448;52.034;5.158;2022-10-16T14:03:26;6.57;;;1.63;;
16669;SDS011;8448;52.034;5.158;2022-10-16T14:05:55;6.50;;;1.73;;
16669;SDS011;8448;52.034;5.158;2022-10-16T14:08:24;5.15;;;1.35;;
16669;SDS011;8448;52.034;5.158;2022-10-16T14:10:53;6.28;;;1.55;;
16669;SDS011;8448;52.034;5.158;2022-10-16T14:13:28;6.10;;;1.88;;
16669;SDS011;8448;52.034;5.158;2022-10-16T14:15:57;7.72;;;1.85;;
16669;SDS011;8448;52.034;5.158;2022-10-16T14:18:26;6.70;;;1.50;;
16669;SDS011;8448;52.034;5.158;2022-10-16T14:20:54;7.75;;;1.73;;
16669;SDS011;8448;52.034;5.158;2022-10-16T14:23:29;8.23;;;1.70;;
16669;SDS011;8448;52.034;5.158;2022-10-16T14:26:05;5.60;;;1.67;;
16669;SDS011;8448;52.034;5.158;2022-10-16T14:28:41;4.60;;;1.60;;
16669;SDS011;8448;52.034;5.158;2022-10-16T14:31:23;10.38;;;2.17;;
16669;SDS011;8448;52.034;5.158;2022-10-16T14:33:52;5.50;;;1.60;;
16669;SDS011;8448;52.034;5.158;2022-10-16T14:36:19;7.47;;;1.67;;
16669;SDS011;8448;52.034;5.158;2022-10-16T14:38:48;8.05;;;1.80;;
16669;SDS011;8448;52.034;5.158;2022-10-16T14:41:24;8.25;;;1.98;;
16669;SDS011;8448;52.034;5.158;2022-10-16T14:43:53;7.03;;;2.00;;
16669;SDS011;8448;52.034;5.158;2022-10-16T14:46:22;3.97;;;1.50;;
16669;SDS011;8448;52.034;5.158;2022-10-16T14:48:58;6.25;;;1.77;;
16669;SDS011;8448;52.034;5.158;2022-10-16T14:51:28;5.82;;;1.90;;
16669;SDS011;8448;52.034;5.158;2022-10-16T14:53:56;8.60;;;2.45;;
16669;SDS011;8448;52.034;5.158;2022-10-16T14:56:23;7.22;;;1.85;;
16669;SDS011;8448;52.034;5.158;2022-10-16T14:58:54;7.85;;;1.95;;
16669;SDS011;8448;52.034;5.158;2022-10-16T15:01:22;4.82;;;1.52;;
16669;SDS011;8448;52.034;5.158;2022-10-16T15:03:49;6.25;;;2.00;;
16669;SDS011;8448;52.034;5.158;2022-10-16T15:06:19;7.85;;;1.80;;
16669;SDS011;8448;52.034;5.158;2022-10-16T15:08:47;6.05;;;1.95;;
16669;SDS011;8448;52.034;5.158;2022-10-16T15:11:15;7.85;;;2.10;;
16669;SDS011;8448;52.034;5.158;2022-10-16T15:13:43;8.77;;;2.20;;
16669;SDS011;8448;52.034;5.158;2022-10-16T15:16:15;8.23;;;1.70;;
16669;SDS011;8448;52.034;5.158;2022-10-16T15:18:43;8.90;;;2.10;;
16669;SDS011;8448;52.034;5.158;2022-10-16T15:21:11;5.70;;;1.88;;
16669;SDS011;8448;52.034;5.158;2022-10-16T15:23:48;6.65;;;1.92;;
16669;SDS011;8448;52.034;5.158;2022-10-16T15:26:16;6.88;;;1.90;;
16669;SDS011;8448;52.034;5.158;2022-10-16T15:28:43;4.25;;;1.60;;
16669;SDS011;8448;52.034;5.158;2022-10-16T15:31:12;4.90;;;1.70;;
16669;SDS011;8448;52.034;5.158;2022-10-16T15:33:39;6.93;;;1.88;;